createdAt,value
2018-12-30T00:03:59.146Z,10.93
2018-12-30T00:09:01.793Z,10.80
2018-12-30T00:14:05.371Z,11.20
2018-12-30T00:19:07.282Z,12.00
2018-12-30T00:24:09.310Z,12.30
2018-12-30T00:29:11.319Z,13.47
2018-12-30T00:34:13.238Z,11.53
2018-12-30T00:39:15.256Z,12.40
2018-12-30T00:44:17.210Z,14.17
2018-12-30T00:49:19.124Z,13.17
2018-12-30T00:54:21.320Z,13.13
2018-12-30T00:59:23.227Z,16.57
2018-12-30T01:04:25.311Z,15.33
2018-12-30T01:09:27.205Z,18.03
2018-12-30T01:14:29.109Z,17.60
2018-12-30T01:19:31.330Z,21.03
2018-12-30T01:24:33.326Z,21.60
2018-12-30T01:29:35.415Z,23.97
2018-12-30T01:34:37.466Z,22.33
2018-12-30T01:39:39.392Z,20.03
2018-12-30T01:44:41.294Z,21.33
2018-12-30T01:49:43.397Z,20.27
2018-12-30T01:54:45.317Z,14.17
2018-12-30T01:59:48.215Z,17.20
2018-12-30T02:04:50.352Z,13.30
2018-12-30T02:09:52.254Z,9.43
2018-12-30T02:14:54.464Z,8.53
2018-12-30T02:19:56.380Z,5.17
2018-12-30T02:24:58.444Z,5.10
2018-12-30T02:30:00.358Z,4.07
2018-12-30T02:35:02.562Z,3.50
2018-12-30T02:40:04.662Z,3.30
2018-12-30T02:45:06.697Z,3.50
2018-12-30T02:50:08.873Z,3.10
2018-12-30T02:55:10.781Z,3.50
2018-12-30T03:00:12.886Z,4.40
2018-12-30T03:05:14.852Z,3.00
2018-12-30T03:10:16.749Z,3.33
2018-12-30T03:15:18.774Z,6.43
2018-12-30T03:20:20.825Z,1.40
2018-12-30T03:25:22.769Z,0.80
2018-12-30T03:36:37.371Z,0.90
2018-12-30T03:41:39.421Z,1.47
2018-12-30T03:46:41.322Z,3.10
2018-12-30T03:51:43.276Z,1.90
2018-12-30T03:56:45.286Z,1.50
2018-12-30T04:01:47.196Z,2.13
2018-12-30T04:06:49.396Z,5.83
2018-12-30T04:11:51.313Z,7.97
2018-12-30T04:16:53.205Z,6.13
2018-12-30T04:21:55.238Z,7.47
2018-12-30T04:26:57.230Z,9.73
2018-12-30T04:31:59.132Z,7.27
2018-12-30T04:37:01.131Z,7.27
2018-12-30T04:42:03.247Z,9.17
2018-12-30T04:47:05.297Z,6.03
2018-12-30T04:52:07.355Z,8.40
2018-12-30T04:57:09.385Z,9.10
2018-12-30T05:02:11.271Z,14.13
2018-12-30T05:07:13.306Z,15.23
2018-12-30T05:12:15.221Z,11.53
2018-12-30T05:17:17.330Z,17.60
2018-12-30T05:22:19.243Z,14.67
2018-12-30T05:27:21.180Z,16.80
2018-12-30T05:32:23.083Z,10.43
2018-12-30T05:37:25.019Z,17.60
2018-12-30T05:42:26.942Z,7.30
2018-12-30T05:47:28.860Z,13.83
2018-12-30T05:52:30.884Z,10.87
2018-12-30T05:57:32.799Z,10.40
2018-12-30T06:02:34.782Z,11.00
2018-12-30T06:07:36.700Z,14.47
2018-12-30T06:12:38.607Z,9.93
2018-12-30T06:17:40.551Z,7.87
2018-12-30T06:22:49.304Z,11.07
2018-12-30T06:27:46.341Z,7.90
2018-12-30T06:32:50.143Z,11.33
2018-12-30T06:37:55.174Z,10.53
2018-12-30T06:42:57.084Z,11.07
2018-12-30T06:47:59.019Z,7.50
2018-12-30T06:53:00.933Z,12.60
2018-12-30T06:58:02.871Z,12.10
2018-12-30T07:03:04.784Z,8.20
2018-12-30T07:08:06.703Z,13.13
2018-12-30T07:13:08.639Z,17.70
2018-12-30T07:18:10.707Z,25.40
2018-12-30T07:23:12.628Z,21.30
2018-12-30T07:28:14.613Z,13.33
2018-12-30T07:33:16.552Z,16.90
2018-12-30T07:38:18.459Z,16.63
2018-12-30T07:43:20.421Z,18.70
2018-12-30T07:48:22.327Z,23.73
2018-12-30T07:53:24.242Z,19.80
2018-12-30T07:58:26.527Z,24.47
2018-12-30T08:03:28.574Z,14.47
2018-12-30T08:08:30.594Z,27.03
2018-12-30T08:13:33.049Z,19.60
2018-12-30T08:18:34.968Z,19.47
2018-12-30T08:23:37.219Z,16.27
2018-12-30T08:28:57.840Z,17.80
2018-12-30T08:33:59.754Z,24.00
2018-12-30T08:39:03.975Z,21.07
2018-12-30T08:44:05.943Z,22.30
2018-12-30T08:49:07.859Z,18.10
2018-12-30T08:54:09.819Z,19.47
2018-12-30T08:59:11.848Z,20.80
2018-12-30T09:04:13.738Z,14.17
2018-12-30T09:09:15.931Z,13.33
2018-12-30T09:14:17.843Z,20.83
2018-12-30T09:19:19.794Z,13.13
2018-12-30T09:24:21.734Z,14.27
2018-12-30T09:29:23.642Z,16.97
2018-12-30T09:34:25.539Z,16.63
2018-12-30T09:39:27.463Z,14.20
2018-12-30T09:44:29.346Z,11.57
2018-12-30T09:49:31.283Z,16.07
2018-12-30T09:54:33.222Z,18.43
2018-12-30T09:59:35.150Z,15.27
2018-12-30T10:04:37.033Z,13.80
2018-12-30T10:09:38.965Z,10.10
2018-12-30T10:14:40.865Z,10.63
2018-12-30T10:19:43.780Z,11.20
2018-12-30T10:24:45.889Z,18.37
2018-12-30T10:29:49.475Z,21.50
2018-12-30T10:34:51.467Z,12.13
2018-12-30T10:39:53.359Z,15.60
2018-12-30T10:44:55.282Z,14.10
2018-12-30T10:49:59.410Z,10.90
2018-12-30T10:55:01.558Z,11.80
2018-12-30T11:00:04.602Z,12.33
2018-12-30T11:05:06.689Z,11.53
2018-12-30T11:10:08.711Z,9.93
2018-12-30T11:15:10.706Z,7.57
2018-12-30T11:20:12.691Z,7.77
2018-12-30T11:25:14.602Z,10.40
2018-12-30T11:30:17.483Z,8.47
2018-12-30T11:35:19.392Z,8.00
2018-12-30T11:40:21.419Z,7.83
2018-12-30T11:45:23.414Z,9.63
2018-12-30T11:50:25.526Z,9.90
2018-12-30T11:55:27.550Z,6.50
2018-12-30T12:00:29.446Z,10.60
2018-12-30T12:05:31.434Z,9.00
2018-12-30T12:10:33.482Z,9.50
2018-12-30T12:15:35.373Z,11.53
2018-12-30T12:20:37.314Z,8.10
2018-12-30T12:25:39.262Z,6.53
2018-12-30T12:30:41.187Z,9.87
2018-12-30T12:35:43.194Z,7.13
2018-12-30T12:40:45.902Z,7.60
2018-12-30T12:45:47.911Z,10.73
2018-12-30T12:50:49.828Z,11.27
2018-12-30T12:55:51.958Z,10.87
2018-12-30T13:00:53.862Z,8.13
2018-12-30T13:05:55.774Z,9.17
2018-12-30T13:10:57.682Z,8.50
2018-12-30T13:16:03.571Z,9.03
2018-12-30T13:21:03.669Z,6.87
2018-12-30T13:26:06.097Z,7.33
2018-12-30T13:31:08.003Z,8.57
2018-12-30T13:36:11.048Z,8.90
2018-12-30T13:41:12.983Z,5.50
2018-12-30T13:46:14.876Z,8.03
2018-12-30T13:51:16.918Z,8.00
2018-12-30T13:56:18.823Z,11.80
2018-12-30T14:01:20.923Z,10.07
2018-12-30T14:06:22.819Z,9.07
2018-12-30T14:11:25.847Z,7.83
2018-12-30T14:16:27.738Z,9.57
2018-12-30T14:21:30.702Z,7.93
2018-12-30T14:26:34.569Z,13.87
2018-12-30T14:31:36.455Z,8.13
2018-12-30T14:36:38.360Z,6.63
2018-12-30T14:41:40.383Z,6.03
2018-12-30T14:46:42.273Z,12.80
2018-12-30T14:51:44.187Z,7.60
2018-12-30T14:56:46.133Z,6.63
2018-12-30T15:01:48.033Z,7.93
2018-12-30T15:06:49.938Z,6.33
2018-12-30T15:11:51.898Z,11.20
2018-12-30T15:16:53.786Z,11.13
2018-12-30T15:21:56.839Z,10.90
2018-12-30T15:26:58.759Z,9.67
2018-12-30T15:32:00.657Z,8.97
2018-12-30T15:37:02.654Z,9.53
2018-12-30T15:42:04.555Z,15.27
2018-12-30T15:47:06.434Z,7.70
2018-12-30T15:52:08.435Z,10.50
2018-12-30T15:57:10.376Z,9.17
2018-12-30T16:02:12.894Z,7.37
2018-12-30T16:07:15.421Z,14.33
2018-12-30T16:12:17.446Z,10.60
2018-12-30T16:17:19.331Z,10.23
2018-12-30T16:22:21.425Z,9.53
2018-12-30T16:27:23.343Z,8.77
2018-12-30T16:32:25.762Z,8.23
2018-12-30T16:37:27.656Z,13.47
2018-12-30T16:42:29.567Z,9.17
2018-12-30T16:47:31.557Z,10.13
2018-12-30T16:52:33.660Z,10.00
2018-12-30T16:57:35.682Z,11.03
2018-12-30T17:02:37.613Z,8.70
2018-12-30T17:07:39.518Z,7.20
2018-12-30T17:12:41.418Z,11.40
2018-12-30T17:17:43.319Z,14.13
2018-12-30T17:22:45.367Z,9.47
2018-12-30T17:27:47.284Z,8.93
2018-12-30T17:32:49.215Z,12.80
2018-12-30T17:37:51.115Z,8.43
2018-12-30T17:42:53.024Z,15.97
2018-12-30T17:47:54.944Z,7.73
2018-12-30T17:52:56.839Z,9.33
2018-12-30T17:57:59.050Z,11.70
2018-12-30T18:03:00.995Z,7.93
2018-12-30T18:08:04.696Z,8.43
2018-12-30T18:13:06.601Z,12.80
2018-12-30T18:18:08.617Z,7.50
2018-12-30T18:23:10.775Z,10.03
2018-12-30T18:28:12.714Z,10.63
2018-12-30T18:33:14.659Z,6.87
2018-12-30T18:38:16.757Z,13.23
2018-12-30T18:43:18.654Z,6.80
2018-12-30T18:48:20.590Z,9.03
2018-12-30T18:53:22.614Z,11.70
2018-12-30T18:58:24.545Z,10.27
2018-12-30T19:03:26.465Z,15.00
2018-12-30T19:08:28.455Z,6.83
2018-12-30T19:13:30.459Z,9.10
2018-12-30T19:18:32.672Z,12.90
2018-12-30T19:23:34.658Z,11.27
2018-12-30T19:28:36.640Z,11.50
2018-12-30T19:33:38.540Z,14.40
2018-12-30T19:38:40.429Z,10.23
2018-12-30T19:43:42.397Z,12.50
2018-12-30T19:48:44.277Z,11.10
2018-12-30T19:53:46.182Z,11.43
2018-12-30T19:58:48.118Z,10.93
2018-12-30T20:03:50.018Z,15.87
2018-12-30T20:08:52.017Z,14.00
2018-12-30T20:13:53.922Z,15.77
2018-12-30T20:18:55.880Z,16.33
2018-12-30T20:23:57.847Z,13.80
2018-12-30T20:28:59.747Z,16.83
2018-12-30T20:34:01.667Z,13.13
2018-12-30T20:39:06.263Z,14.77
2018-12-30T20:44:08.267Z,19.13
2018-12-30T20:49:10.166Z,14.93
2018-12-30T20:54:12.151Z,16.13
2018-12-30T20:59:14.098Z,16.00
2018-12-30T21:04:15.994Z,11.23
2018-12-30T21:09:17.870Z,12.77
2018-12-30T21:14:19.821Z,11.23
2018-12-30T21:19:21.708Z,9.23
2018-12-30T21:24:23.644Z,10.57
2018-12-30T21:29:25.590Z,9.23
2018-12-30T21:34:27.491Z,6.43
2018-12-30T21:39:29.484Z,9.87
2018-12-30T21:44:31.386Z,17.43
2018-12-30T21:49:33.425Z,27.67
2018-12-30T21:54:35.358Z,22.70
2018-12-30T21:59:37.355Z,21.10
2018-12-30T22:04:39.279Z,15.63
2018-12-30T22:09:43.907Z,17.90
2018-12-30T22:14:46.668Z,21.10
2018-12-30T22:19:48.570Z,17.50
2018-12-30T22:24:50.522Z,18.00
2018-12-30T22:29:52.485Z,17.40
2018-12-30T22:34:54.387Z,20.60
2018-12-30T22:39:56.454Z,20.67
2018-12-30T22:44:58.407Z,17.43
2018-12-30T22:50:00.288Z,16.13
2018-12-30T22:55:02.259Z,18.07
2018-12-30T23:00:07.084Z,16.57
2018-12-30T23:05:10.006Z,16.97
2018-12-30T23:10:12.122Z,18.10
2018-12-30T23:15:14.131Z,17.83
2018-12-30T23:20:16.034Z,24.23
2018-12-30T23:25:18.138Z,16.57
2018-12-30T23:30:20.069Z,18.13
2018-12-30T23:35:22.964Z,14.30
2018-12-30T23:40:25.232Z,16.20
2018-12-30T23:45:27.251Z,17.30
2018-12-30T23:50:29.130Z,20.13
2018-12-30T23:55:31.181Z,13.60
